OAL463 LGAV-EDDF
Flight info
| Callsign | OAL463 |
|---|---|
| Flight time | 2h 31m |
| Altitude | 34000 |
| Route | KOR UL53 ELVAS DCT TUMBO DCT OVVER DCT RODON DCT NERRA DCT SIRMI DCT SIMBA DCT AKINI T161 DEBHI |
| Aircraft | B77L/H-SDE1E2E3FGHIJ2J3J4J5M1RWXY/LB1D1 |
Departure
| Time | 2026-04-14 06:42 |
|---|---|
| Airport | Athens Eleftherios Venizelos International Airport (LGAV) |
Arrival
| Time | 2026-04-14 09:13 |
|---|---|
| Airport | Frankfurt Main Airport (EDDF) |
| Time | Latitude | Longitude | Altitude | Speed | Heading |
|---|---|---|---|---|---|
| 2026-04-14 06:41 | 37.95763 | 24.00905 | 14747 ft | 349 kts | 247° |
| 2026-04-14 06:42 | 37.94798 | 23.98023 | 15185 ft | 362 kts | 247° |
| 2026-04-14 06:42 | 37.93801 | 23.95055 | 15786 ft | 369 kts | 247° |
| 2026-04-14 06:42 | 37.92789 | 23.92050 | 16496 ft | 373 kts | 247° |
| 2026-04-14 06:42 | 37.91769 | 23.89026 | 17248 ft | 375 kts | 247° |
| 2026-04-14 06:43 | 37.90739 | 23.85978 | 17959 ft | 378 kts | 248° |
| 2026-04-14 06:43 | 37.89703 | 23.82912 | 18660 ft | 378 kts | 249° |
| 2026-04-14 06:43 | 37.88963 | 23.79710 | 19118 ft | 384 kts | 263° |
| 2026-04-14 06:43 | 37.88983 | 23.76331 | 19702 ft | 386 kts | 273° |
| 2026-04-14 06:44 | 37.89126 | 23.74078 | 20088 ft | 389 kts | 273° |
| 2026-04-14 06:44 | 37.89392 | 23.69497 | 21005 ft | 390 kts | 272° |
| 2026-04-14 06:44 | 37.89579 | 23.66064 | 21627 ft | 392 kts | 272° |
| 2026-04-14 06:44 | 37.89760 | 23.62602 | 22194 ft | 395 kts | 272° |
| 2026-04-14 06:45 | 37.89937 | 23.59119 | 22771 ft | 398 kts | 272° |
| 2026-04-14 06:45 | 37.90112 | 23.55603 | 23317 ft | 401 kts | 272° |
| 2026-04-14 06:45 | 37.90286 | 23.52072 | 23880 ft | 403 kts | 272° |
| 2026-04-14 06:45 | 37.90458 | 23.48563 | 24409 ft | 406 kts | 272° |
| 2026-04-14 06:46 | 37.90805 | 23.41385 | 25454 ft | 411 kts | 272° |
| 2026-04-14 06:46 | 37.90978 | 23.37762 | 25924 ft | 414 kts | 272° |
| 2026-04-14 06:46 | 37.91149 | 23.34116 | 26381 ft | 417 kts | 272° |
| 2026-04-14 06:47 | 37.91323 | 23.30440 | 26870 ft | 419 kts | 272° |
| 2026-04-14 06:47 | 37.91496 | 23.26753 | 27333 ft | 421 kts | 271° |
| 2026-04-14 06:47 | 37.91669 | 23.23047 | 27769 ft | 423 kts | 271° |
| 2026-04-14 06:47 | 37.91842 | 23.19318 | 28181 ft | 426 kts | 271° |
| 2026-04-14 06:48 | 37.92014 | 23.15564 | 28566 ft | 428 kts | 271° |
| 2026-04-14 06:48 | 37.92186 | 23.11794 | 28968 ft | 430 kts | 271° |
| 2026-04-14 06:48 | 37.92357 | 23.08001 | 29335 ft | 432 kts | 271° |
| 2026-04-14 06:48 | 37.92529 | 23.04194 | 29701 ft | 434 kts | 271° |
| 2026-04-14 06:49 | 37.92701 | 23.00370 | 30046 ft | 436 kts | 271° |
| 2026-04-14 06:49 | 37.92918 | 22.96543 | 30337 ft | 437 kts | 275° |
| 2026-04-14 06:49 | 37.93700 | 22.92794 | 30642 ft | 444 kts | 287° |
| 2026-04-14 06:49 | 37.95162 | 22.89324 | 31084 ft | 450 kts | 299° |
| 2026-04-14 06:50 | 37.97003 | 22.86107 | 31417 ft | 452 kts | 300° |
| 2026-04-14 06:50 | 37.98844 | 22.82904 | 31957 ft | 446 kts | 300° |
| 2026-04-14 06:50 | 38.00638 | 22.79731 | 32582 ft | 440 kts | 299° |
| 2026-04-14 06:50 | 38.02391 | 22.76574 | 33051 ft | 436 kts | 298° |
| 2026-04-14 06:51 | 38.04099 | 22.73461 | 33389 ft | 436 kts | 298° |
| 2026-04-14 06:51 | 38.05831 | 22.70301 | 33727 ft | 436 kts | 298° |
| 2026-04-14 06:51 | 38.07557 | 22.67152 | 34082 ft | 434 kts | 298° |
| 2026-04-14 06:52 | 38.11038 | 22.60791 | 34119 ft | 442 kts | 298° |
| 2026-04-14 06:52 | 38.14550 | 22.54374 | 34100 ft | 441 kts | 298° |
| 2026-04-14 06:53 | 38.18032 | 22.48002 | 34100 ft | 438 kts | 297° |
| 2026-04-14 06:53 | 38.21494 | 22.41647 | 34099 ft | 436 kts | 297° |
| 2026-04-14 06:54 | 38.24941 | 22.35302 | 34095 ft | 436 kts | 297° |
| 2026-04-14 06:54 | 38.28387 | 22.28950 | 34083 ft | 437 kts | 297° |
| 2026-04-14 06:55 | 38.31838 | 22.22581 | 34081 ft | 438 kts | 297° |
| 2026-04-14 06:55 | 38.35302 | 22.16175 | 34085 ft | 440 kts | 297° |
| 2026-04-14 06:56 | 38.38778 | 22.09738 | 34072 ft | 442 kts | 297° |
| 2026-04-14 06:56 | 38.42266 | 22.03265 | 34059 ft | 443 kts | 297° |
| 2026-04-14 06:57 | 38.45731 | 21.96825 | 34062 ft | 444 kts | 297° |
| 2026-04-14 06:57 | 38.49221 | 21.90329 | 34051 ft | 444 kts | 297° |
| 2026-04-14 06:58 | 38.53286 | 21.84254 | 34046 ft | 456 kts | 308° |
| 2026-04-14 06:58 | 38.58249 | 21.79065 | 34032 ft | 466 kts | 317° |
| 2026-04-14 06:59 | 38.63643 | 21.74430 | 34026 ft | 468 kts | 318° |
| 2026-04-14 06:59 | 38.69053 | 21.69823 | 34048 ft | 467 kts | 317° |
| 2026-04-14 07:00 | 38.74433 | 21.65177 | 34053 ft | 467 kts | 317° |
| 2026-04-14 07:00 | 38.79808 | 21.60495 | 34059 ft | 467 kts | 317° |
| 2026-04-14 07:01 | 38.85168 | 21.55810 | 34067 ft | 467 kts | 317° |
| 2026-04-14 07:01 | 38.90538 | 21.51113 | 34059 ft | 466 kts | 317° |
| 2026-04-14 07:02 | 38.95894 | 21.46422 | 34067 ft | 466 kts | 317° |
| 2026-04-14 07:02 | 39.00344 | 21.42516 | 34049 ft | 466 kts | 317° |
| 2026-04-14 07:03 | 39.06596 | 21.37011 | 34049 ft | 467 kts | 317° |
| 2026-04-14 07:03 | 39.11960 | 21.32285 | 34026 ft | 467 kts | 317° |
| 2026-04-14 07:04 | 39.17338 | 21.27543 | 34047 ft | 468 kts | 317° |
| 2026-04-14 07:04 | 39.22722 | 21.22777 | 34051 ft | 469 kts | 317° |
| 2026-04-14 07:05 | 39.28078 | 21.18030 | 34047 ft | 470 kts | 317° |
| 2026-04-14 07:05 | 39.33502 | 21.13217 | 34029 ft | 470 kts | 317° |
| 2026-04-14 07:06 | 39.38856 | 21.08454 | 34030 ft | 470 kts | 316° |
| 2026-04-14 07:06 | 39.44276 | 21.03625 | 34044 ft | 470 kts | 316° |
| 2026-04-14 07:07 | 39.49610 | 20.98869 | 34073 ft | 466 kts | 316° |
| 2026-04-14 07:07 | 39.54950 | 20.94085 | 34063 ft | 468 kts | 316° |
| 2026-04-14 07:08 | 39.60319 | 20.89268 | 34058 ft | 470 kts | 316° |
| 2026-04-14 07:08 | 39.65710 | 20.84425 | 34050 ft | 472 kts | 316° |
| 2026-04-14 07:09 | 39.71121 | 20.79557 | 34029 ft | 474 kts | 316° |
| 2026-04-14 07:09 | 39.76537 | 20.74673 | 34049 ft | 475 kts | 316° |
| 2026-04-14 07:10 | 39.81972 | 20.69765 | 34053 ft | 476 kts | 316° |
| 2026-04-14 07:10 | 39.87417 | 20.64837 | 34062 ft | 476 kts | 316° |
| 2026-04-14 07:11 | 39.92863 | 20.59895 | 34034 ft | 478 kts | 316° |
| 2026-04-14 07:11 | 39.98322 | 20.54936 | 34027 ft | 478 kts | 316° |
| 2026-04-14 07:12 | 40.03771 | 20.49973 | 34050 ft | 479 kts | 316° |
| 2026-04-14 07:12 | 40.09217 | 20.44963 | 34022 ft | 477 kts | 315° |
| 2026-04-14 07:13 | 40.14567 | 20.39801 | 34016 ft | 478 kts | 314° |
| 2026-04-14 07:13 | 40.19860 | 20.34654 | 34013 ft | 476 kts | 314° |
| 2026-04-14 07:14 | 40.25160 | 20.29524 | 34028 ft | 473 kts | 315° |
| 2026-04-14 07:14 | 40.30457 | 20.24399 | 34037 ft | 475 kts | 315° |
| 2026-04-14 07:15 | 40.35781 | 20.19239 | 34049 ft | 476 kts | 315° |
| 2026-04-14 07:15 | 40.41114 | 20.14060 | 34046 ft | 478 kts | 315° |
| 2026-04-14 07:16 | 40.46449 | 20.08866 | 34036 ft | 478 kts | 315° |
| 2026-04-14 07:16 | 40.51793 | 20.03655 | 34053 ft | 478 kts | 315° |
| 2026-04-14 07:17 | 40.57123 | 19.98441 | 34027 ft | 477 kts | 315° |
| 2026-04-14 07:17 | 40.62446 | 19.93220 | 34031 ft | 478 kts | 315° |
| 2026-04-14 07:18 | 40.67769 | 19.87989 | 34025 ft | 478 kts | 315° |
| 2026-04-14 07:18 | 40.72208 | 19.83610 | 34006 ft | 481 kts | 315° |
| 2026-04-14 07:19 | 40.77567 | 19.78318 | 34020 ft | 482 kts | 315° |
| 2026-04-14 07:19 | 40.82959 | 19.72989 | 34012 ft | 484 kts | 316° |
| 2026-04-14 07:20 | 40.88345 | 19.67651 | 33993 ft | 484 kts | 316° |
| 2026-04-14 07:20 | 40.93739 | 19.62295 | 33989 ft | 484 kts | 316° |
| 2026-04-14 07:21 | 40.99115 | 19.56946 | 33992 ft | 484 kts | 316° |
| 2026-04-14 07:21 | 41.04502 | 19.51570 | 33993 ft | 484 kts | 316° |
| 2026-04-14 07:22 | 41.09666 | 19.46413 | 33990 ft | 484 kts | 316° |
| 2026-04-14 07:22 | 41.15036 | 19.41036 | 33990 ft | 484 kts | 316° |
| 2026-04-14 07:23 | 41.20398 | 19.35653 | 33997 ft | 483 kts | 316° |
| 2026-04-14 07:23 | 41.25770 | 19.30250 | 34002 ft | 484 kts | 316° |
| 2026-04-14 07:24 | 41.31127 | 19.24851 | 34000 ft | 484 kts | 316° |
| 2026-04-14 07:24 | 41.36494 | 19.19429 | 33998 ft | 484 kts | 316° |
| 2026-04-14 07:25 | 41.41871 | 19.13987 | 33990 ft | 485 kts | 317° |
| 2026-04-14 07:25 | 41.47236 | 19.08536 | 33993 ft | 485 kts | 316° |
| 2026-04-14 07:26 | 41.52547 | 19.02998 | 33998 ft | 485 kts | 316° |
| 2026-04-14 07:26 | 41.57838 | 18.97424 | 33999 ft | 485 kts | 316° |
| 2026-04-14 07:27 | 41.63133 | 18.91847 | 33999 ft | 485 kts | 316° |
| 2026-04-14 07:27 | 41.68439 | 18.86257 | 34002 ft | 485 kts | 316° |
| 2026-04-14 07:28 | 41.73737 | 18.80668 | 34000 ft | 485 kts | 316° |
| 2026-04-14 07:28 | 41.79027 | 18.75077 | 34006 ft | 485 kts | 316° |
| 2026-04-14 07:29 | 41.84313 | 18.69474 | 34009 ft | 485 kts | 316° |
| 2026-04-14 07:29 | 41.89608 | 18.63852 | 34004 ft | 485 kts | 317° |
| 2026-04-14 07:30 | 41.94894 | 18.58227 | 33999 ft | 485 kts | 317° |
| 2026-04-14 07:30 | 42.00150 | 18.52621 | 34005 ft | 485 kts | 317° |
| 2026-04-14 07:31 | 42.05429 | 18.46977 | 34010 ft | 485 kts | 317° |
| 2026-04-14 07:31 | 42.10709 | 18.41323 | 34010 ft | 485 kts | 317° |
| 2026-04-14 07:32 | 42.15987 | 18.35657 | 34008 ft | 485 kts | 317° |
| 2026-04-14 07:32 | 42.21274 | 18.29969 | 34013 ft | 486 kts | 317° |
| 2026-04-14 07:33 | 42.26550 | 18.24279 | 34007 ft | 486 kts | 317° |
| 2026-04-14 07:33 | 42.31826 | 18.18577 | 33998 ft | 486 kts | 317° |
| 2026-04-14 07:34 | 42.42383 | 18.07133 | 33993 ft | 486 kts | 317° |
| 2026-04-14 07:35 | 42.47648 | 18.01404 | 34000 ft | 486 kts | 317° |
| 2026-04-14 07:35 | 42.52911 | 17.95666 | 33997 ft | 486 kts | 317° |
| 2026-04-14 07:36 | 42.58183 | 17.89905 | 33990 ft | 486 kts | 317° |
| 2026-04-14 07:36 | 42.63446 | 17.84139 | 33990 ft | 486 kts | 317° |
| 2026-04-14 07:37 | 42.68711 | 17.78360 | 33986 ft | 487 kts | 317° |
| 2026-04-14 07:37 | 42.73980 | 17.72563 | 33980 ft | 488 kts | 317° |
| 2026-04-14 07:38 | 42.79222 | 17.66782 | 33980 ft | 488 kts | 317° |
| 2026-04-14 07:38 | 42.84529 | 17.60918 | 33973 ft | 489 kts | 317° |
| 2026-04-14 07:39 | 42.89806 | 17.55074 | 33970 ft | 489 kts | 318° |
| 2026-04-14 07:39 | 42.95255 | 17.49554 | 33967 ft | 491 kts | 321° |
| 2026-04-14 07:40 | 43.00846 | 17.44180 | 33970 ft | 492 kts | 322° |
| 2026-04-14 07:40 | 43.06437 | 17.38790 | 33975 ft | 492 kts | 321° |
| 2026-04-14 07:41 | 43.12016 | 17.33355 | 33977 ft | 493 kts | 321° |
| 2026-04-14 07:41 | 43.17603 | 17.27881 | 33970 ft | 493 kts | 321° |
| 2026-04-14 07:42 | 43.23182 | 17.22405 | 33963 ft | 493 kts | 321° |
| 2026-04-14 07:42 | 43.28753 | 17.16921 | 33960 ft | 493 kts | 321° |
| 2026-04-14 07:43 | 43.34320 | 17.11430 | 33970 ft | 493 kts | 321° |
| 2026-04-14 07:43 | 43.39883 | 17.05931 | 33966 ft | 493 kts | 321° |
| 2026-04-14 07:44 | 43.45456 | 17.00409 | 33951 ft | 493 kts | 321° |
| 2026-04-14 07:44 | 43.51016 | 16.94889 | 33960 ft | 492 kts | 321° |
| 2026-04-14 07:45 | 43.56567 | 16.89365 | 33956 ft | 492 kts | 321° |
| 2026-04-14 07:45 | 43.62086 | 16.83856 | 33937 ft | 492 kts | 321° |
| 2026-04-14 07:46 | 43.67630 | 16.78311 | 33955 ft | 492 kts | 321° |
| 2026-04-14 07:46 | 43.73172 | 16.72757 | 33954 ft | 492 kts | 321° |
| 2026-04-14 07:47 | 43.78721 | 16.67182 | 33936 ft | 492 kts | 321° |
| 2026-04-14 07:47 | 43.84259 | 16.61603 | 33952 ft | 492 kts | 322° |
| 2026-04-14 07:48 | 43.89793 | 16.56018 | 33960 ft | 492 kts | 322° |
| 2026-04-14 07:48 | 43.95328 | 16.50415 | 33951 ft | 492 kts | 322° |
| 2026-04-14 07:49 | 44.00855 | 16.44812 | 33956 ft | 492 kts | 322° |
| 2026-04-14 07:49 | 44.06381 | 16.39191 | 33935 ft | 493 kts | 322° |
| 2026-04-14 07:50 | 44.11881 | 16.33587 | 33956 ft | 493 kts | 322° |
| 2026-04-14 07:50 | 44.17594 | 16.28314 | 33961 ft | 494 kts | 330° |
| 2026-04-14 07:51 | 44.23688 | 16.23827 | 33949 ft | 495 kts | 330° |
| 2026-04-14 07:51 | 44.29793 | 16.19380 | 33935 ft | 495 kts | 330° |
| 2026-04-14 07:52 | 44.35883 | 16.14883 | 33954 ft | 495 kts | 330° |
| 2026-04-14 07:52 | 44.41968 | 16.10340 | 33955 ft | 495 kts | 330° |
| 2026-04-14 07:53 | 44.48037 | 16.05789 | 33953 ft | 495 kts | 330° |
| 2026-04-14 07:53 | 44.54109 | 16.01227 | 33951 ft | 496 kts | 330° |
| 2026-04-14 07:54 | 44.60192 | 15.96649 | 33959 ft | 495 kts | 330° |
| 2026-04-14 07:54 | 44.66263 | 15.92068 | 33955 ft | 496 kts | 330° |
| 2026-04-14 07:55 | 44.72338 | 15.87472 | 33959 ft | 496 kts | 330° |
| 2026-04-14 07:55 | 44.78436 | 15.82848 | 33968 ft | 497 kts | 330° |
| 2026-04-14 07:56 | 44.84526 | 15.78223 | 33974 ft | 498 kts | 330° |
| 2026-04-14 07:56 | 44.90622 | 15.73574 | 33981 ft | 499 kts | 330° |
| 2026-04-14 07:57 | 44.96735 | 15.68908 | 33985 ft | 500 kts | 330° |
| 2026-04-14 07:57 | 45.02856 | 15.64221 | 33992 ft | 501 kts | 329° |
| 2026-04-14 07:58 | 45.08980 | 15.59521 | 33992 ft | 501 kts | 329° |
| 2026-04-14 07:58 | 45.15113 | 15.54804 | 34004 ft | 501 kts | 329° |
| 2026-04-14 07:59 | 45.21241 | 15.50075 | 34012 ft | 502 kts | 329° |
| 2026-04-14 07:59 | 45.27351 | 15.45354 | 34003 ft | 503 kts | 329° |
| 2026-04-14 08:00 | 45.33494 | 15.40593 | 33998 ft | 503 kts | 329° |
| 2026-04-14 08:00 | 45.39638 | 15.35819 | 33999 ft | 503 kts | 329° |
| 2026-04-14 08:01 | 45.45787 | 15.31028 | 34000 ft | 503 kts | 329° |
| 2026-04-14 08:01 | 45.51929 | 15.26234 | 33998 ft | 503 kts | 329° |
| 2026-04-14 08:02 | 45.58057 | 15.21436 | 34005 ft | 502 kts | 329° |
| 2026-04-14 08:02 | 45.64182 | 15.16628 | 34016 ft | 502 kts | 329° |
| 2026-04-14 08:03 | 45.70313 | 15.11803 | 34008 ft | 502 kts | 329° |
| 2026-04-14 08:03 | 45.76436 | 15.06975 | 34024 ft | 503 kts | 329° |
| 2026-04-14 08:04 | 45.82567 | 15.02128 | 34028 ft | 503 kts | 329° |
| 2026-04-14 08:04 | 45.88694 | 14.97269 | 34031 ft | 503 kts | 329° |
| 2026-04-14 08:05 | 45.93792 | 14.93217 | 34029 ft | 504 kts | 329° |
| 2026-04-14 08:05 | 46.00955 | 14.87511 | 34028 ft | 504 kts | 329° |
| 2026-04-14 08:06 | 46.06053 | 14.83439 | 34022 ft | 504 kts | 329° |
| 2026-04-14 08:06 | 46.12190 | 14.78521 | 34045 ft | 505 kts | 329° |
| 2026-04-14 08:07 | 46.18340 | 14.73588 | 34039 ft | 507 kts | 329° |
| 2026-04-14 08:07 | 46.24512 | 14.68623 | 34025 ft | 508 kts | 329° |
| 2026-04-14 08:08 | 46.30685 | 14.63642 | 34037 ft | 508 kts | 329° |
| 2026-04-14 08:08 | 46.36853 | 14.58652 | 34024 ft | 508 kts | 329° |
| 2026-04-14 08:09 | 46.43022 | 14.53649 | 34027 ft | 507 kts | 329° |
| 2026-04-14 08:09 | 46.49173 | 14.48647 | 34052 ft | 507 kts | 329° |
| 2026-04-14 08:10 | 46.55284 | 14.43664 | 34049 ft | 507 kts | 329° |
| 2026-04-14 08:10 | 46.61470 | 14.38603 | 34047 ft | 507 kts | 329° |
| 2026-04-14 08:11 | 46.67622 | 14.33564 | 34052 ft | 507 kts | 329° |
| 2026-04-14 08:11 | 46.73761 | 14.28520 | 34046 ft | 507 kts | 329° |
| 2026-04-14 08:12 | 46.79862 | 14.23494 | 34050 ft | 507 kts | 329° |
| 2026-04-14 08:12 | 46.86004 | 14.18421 | 34049 ft | 507 kts | 329° |
| 2026-04-14 08:13 | 46.92154 | 14.13325 | 34051 ft | 508 kts | 329° |
| 2026-04-14 08:13 | 46.98309 | 14.08214 | 34049 ft | 509 kts | 329° |
| 2026-04-14 08:14 | 47.04476 | 14.03079 | 34045 ft | 510 kts | 329° |
| 2026-04-14 08:14 | 47.10649 | 13.97924 | 34057 ft | 510 kts | 329° |
| 2026-04-14 08:15 | 47.16825 | 13.92751 | 34056 ft | 511 kts | 329° |
| 2026-04-14 08:15 | 47.23001 | 13.87569 | 34053 ft | 511 kts | 328° |
| 2026-04-14 08:16 | 47.29188 | 13.82360 | 34055 ft | 512 kts | 328° |
| 2026-04-14 08:16 | 47.35370 | 13.77139 | 34056 ft | 513 kts | 328° |
| 2026-04-14 08:17 | 47.41556 | 13.71902 | 34057 ft | 513 kts | 328° |
| 2026-04-14 08:17 | 47.47750 | 13.66650 | 34059 ft | 513 kts | 328° |
| 2026-04-14 08:18 | 47.53901 | 13.61416 | 34064 ft | 513 kts | 328° |
| 2026-04-14 08:18 | 47.60088 | 13.56136 | 34072 ft | 513 kts | 328° |
| 2026-04-14 08:19 | 47.66274 | 13.50840 | 34072 ft | 514 kts | 328° |
| 2026-04-14 08:19 | 47.72476 | 13.45519 | 34073 ft | 514 kts | 328° |
| 2026-04-14 08:20 | 47.78674 | 13.40187 | 34071 ft | 515 kts | 328° |
| 2026-04-14 08:20 | 47.84867 | 13.34840 | 34073 ft | 514 kts | 328° |
| 2026-04-14 08:21 | 47.91051 | 13.29487 | 34072 ft | 514 kts | 328° |
| 2026-04-14 08:21 | 47.97227 | 13.24129 | 34076 ft | 513 kts | 328° |
| 2026-04-14 08:22 | 48.03393 | 13.18765 | 34073 ft | 512 kts | 328° |
| 2026-04-14 08:22 | 48.09551 | 13.13392 | 34072 ft | 512 kts | 328° |
| 2026-04-14 08:23 | 48.15699 | 13.08013 | 34074 ft | 512 kts | 328° |
| 2026-04-14 08:23 | 48.21711 | 13.02291 | 34075 ft | 511 kts | 321° |
| 2026-04-14 08:24 | 48.26956 | 12.95165 | 34086 ft | 507 kts | 310° |
| 2026-04-14 08:24 | 48.31605 | 12.87211 | 34078 ft | 507 kts | 309° |
| 2026-04-14 08:25 | 48.36232 | 12.79212 | 34090 ft | 507 kts | 309° |
| 2026-04-14 08:25 | 48.40882 | 12.71247 | 34084 ft | 507 kts | 309° |
| 2026-04-14 08:26 | 48.45550 | 12.63276 | 34081 ft | 507 kts | 309° |
| 2026-04-14 08:26 | 48.50207 | 12.55305 | 34080 ft | 506 kts | 309° |
| 2026-04-14 08:27 | 48.54824 | 12.47376 | 34096 ft | 506 kts | 309° |
| 2026-04-14 08:27 | 48.59462 | 12.39374 | 34090 ft | 506 kts | 309° |
| 2026-04-14 08:28 | 48.64103 | 12.31346 | 34098 ft | 506 kts | 309° |
| 2026-04-14 08:28 | 48.68729 | 12.23321 | 34088 ft | 506 kts | 309° |
| 2026-04-14 08:29 | 48.73124 | 12.15037 | 34070 ft | 503 kts | 298° |
| 2026-04-14 08:29 | 48.75821 | 12.05382 | 34089 ft | 496 kts | 281° |
| 2026-04-14 08:30 | 48.76940 | 11.95133 | 34077 ft | 493 kts | 275° |
| 2026-04-14 08:30 | 48.77948 | 11.84846 | 34077 ft | 494 kts | 276° |
| 2026-04-14 08:31 | 48.79027 | 11.74558 | 34073 ft | 494 kts | 276° |
| 2026-04-14 08:31 | 48.80649 | 11.59129 | 34075 ft | 494 kts | 276° |
| 2026-04-14 08:32 | 48.81718 | 11.48897 | 34072 ft | 494 kts | 276° |
| 2026-04-14 08:32 | 48.82797 | 11.38531 | 34082 ft | 494 kts | 276° |
| 2026-04-14 08:33 | 48.83905 | 11.28311 | 34085 ft | 494 kts | 281° |
| 2026-04-14 08:33 | 48.85062 | 11.23385 | 34097 ft | 498 kts | 295° |
| 2026-04-14 08:33 | 48.86882 | 11.18828 | 34099 ft | 499 kts | 306° |
| 2026-04-14 08:34 | 48.89194 | 11.14971 | 34068 ft | 491 kts | 317° |
| 2026-04-14 08:34 | 48.91781 | 11.11599 | 33644 ft | 488 kts | 319° |
| 2026-04-14 08:34 | 48.94305 | 11.08277 | 33178 ft | 484 kts | 317° |
| 2026-04-14 08:34 | 48.96794 | 11.04863 | 32661 ft | 481 kts | 316° |
| 2026-04-14 08:35 | 48.99246 | 11.01410 | 32154 ft | 478 kts | 316° |
| 2026-04-14 08:35 | 49.01663 | 10.97976 | 31631 ft | 475 kts | 316° |
| 2026-04-14 08:35 | 49.04077 | 10.94550 | 31125 ft | 472 kts | 316° |
| 2026-04-14 08:35 | 49.06478 | 10.91154 | 30610 ft | 469 kts | 316° |
| 2026-04-14 08:36 | 49.08864 | 10.87781 | 30122 ft | 466 kts | 316° |
| 2026-04-14 08:36 | 49.11235 | 10.84436 | 29614 ft | 463 kts | 316° |
| 2026-04-14 08:36 | 49.13590 | 10.81112 | 29103 ft | 460 kts | 316° |
| 2026-04-14 08:36 | 49.15931 | 10.77802 | 28604 ft | 457 kts | 316° |
| 2026-04-14 08:37 | 49.18251 | 10.74519 | 28105 ft | 454 kts | 316° |
| 2026-04-14 08:37 | 49.20552 | 10.71234 | 27607 ft | 450 kts | 314° |
| 2026-04-14 08:37 | 49.22752 | 10.67863 | 27099 ft | 447 kts | 312° |
| 2026-04-14 08:37 | 49.24895 | 10.64432 | 26625 ft | 444 kts | 311° |
| 2026-04-14 08:38 | 49.27011 | 10.61022 | 26136 ft | 441 kts | 312° |
| 2026-04-14 08:38 | 49.29095 | 10.57686 | 25660 ft | 438 kts | 312° |
| 2026-04-14 08:38 | 49.31203 | 10.54342 | 25182 ft | 435 kts | 312° |
| 2026-04-14 08:38 | 49.33298 | 10.51034 | 24711 ft | 432 kts | 312° |
| 2026-04-14 08:39 | 49.35385 | 10.47737 | 24247 ft | 429 kts | 312° |
| 2026-04-14 08:39 | 49.37357 | 10.44336 | 23777 ft | 423 kts | 306° |
| 2026-04-14 08:39 | 49.39071 | 10.40703 | 23365 ft | 418 kts | 302° |
| 2026-04-14 08:39 | 49.40678 | 10.37005 | 22933 ft | 415 kts | 301° |
| 2026-04-14 08:40 | 49.42264 | 10.33324 | 22507 ft | 412 kts | 301° |
| 2026-04-14 08:40 | 49.43857 | 10.29688 | 22087 ft | 409 kts | 302° |
| 2026-04-14 08:40 | 49.45459 | 10.26097 | 21668 ft | 406 kts | 302° |
| 2026-04-14 08:40 | 49.47062 | 10.22544 | 21251 ft | 403 kts | 302° |
| 2026-04-14 08:41 | 49.48658 | 10.19024 | 20841 ft | 399 kts | 302° |
| 2026-04-14 08:41 | 49.50239 | 10.15538 | 20436 ft | 396 kts | 303° |
| 2026-04-14 08:41 | 49.51802 | 10.12084 | 20043 ft | 392 kts | 302° |
| 2026-04-14 08:41 | 49.53354 | 10.08648 | 19636 ft | 389 kts | 302° |
| 2026-04-14 08:42 | 49.54888 | 10.05250 | 19252 ft | 385 kts | 302° |
| 2026-04-14 08:42 | 49.56409 | 10.01876 | 18857 ft | 381 kts | 302° |
| 2026-04-14 08:42 | 49.57910 | 9.98541 | 18474 ft | 377 kts | 303° |
| 2026-04-14 08:42 | 49.59399 | 9.95231 | 18088 ft | 374 kts | 302° |
| 2026-04-14 08:43 | 49.60872 | 9.91951 | 17702 ft | 370 kts | 303° |
| 2026-04-14 08:43 | 49.62329 | 9.88707 | 17329 ft | 366 kts | 303° |
| 2026-04-14 08:43 | 49.63769 | 9.85496 | 16952 ft | 362 kts | 302° |
| 2026-04-14 08:43 | 49.65193 | 9.82308 | 16584 ft | 359 kts | 302° |
| 2026-04-14 08:44 | 49.66590 | 9.79178 | 16223 ft | 358 kts | 302° |
| 2026-04-14 08:44 | 49.67996 | 9.76025 | 15865 ft | 357 kts | 302° |
| 2026-04-14 08:44 | 49.69403 | 9.72872 | 15509 ft | 357 kts | 302° |
| 2026-04-14 08:44 | 49.70811 | 9.69712 | 15127 ft | 355 kts | 302° |
| 2026-04-14 08:45 | 49.72204 | 9.66581 | 14767 ft | 352 kts | 302° |
| 2026-04-14 08:45 | 49.73580 | 9.63482 | 14414 ft | 348 kts | 302° |
| 2026-04-14 08:45 | 49.74947 | 9.60398 | 14060 ft | 346 kts | 302° |
| 2026-04-14 08:45 | 49.76308 | 9.57330 | 13711 ft | 346 kts | 302° |
| 2026-04-14 08:46 | 49.77665 | 9.54263 | 13361 ft | 346 kts | 302° |
| 2026-04-14 08:46 | 49.79022 | 9.51192 | 13004 ft | 344 kts | 302° |
| 2026-04-14 08:46 | 49.80366 | 9.48149 | 12650 ft | 340 kts | 301° |
| 2026-04-14 08:46 | 49.81694 | 9.45135 | 12303 ft | 339 kts | 301° |
| 2026-04-14 08:47 | 49.83019 | 9.42127 | 11959 ft | 338 kts | 301° |
| 2026-04-14 08:47 | 49.84343 | 9.39120 | 11617 ft | 337 kts | 301° |
| 2026-04-14 08:47 | 49.85657 | 9.36131 | 11280 ft | 334 kts | 301° |
| 2026-04-14 08:47 | 49.86707 | 9.33032 | 11073 ft | 319 kts | 286° |
| 2026-04-14 08:48 | 49.87317 | 9.29720 | 10958 ft | 323 kts | 283° |
| 2026-04-14 08:48 | 49.87915 | 9.26320 | 10829 ft | 330 kts | 283° |
| 2026-04-14 08:48 | 49.88538 | 9.22894 | 10695 ft | 330 kts | 284° |
| 2026-04-14 08:48 | 49.88955 | 9.20650 | 10595 ft | 324 kts | 284° |
| 2026-04-14 08:49 | 49.89782 | 9.16265 | 10398 ft | 310 kts | 284° |
| 2026-04-14 08:49 | 49.90378 | 9.13124 | 10275 ft | 298 kts | 284° |
| 2026-04-14 08:49 | 49.90954 | 9.10097 | 10138 ft | 287 kts | 284° |
| 2026-04-14 08:49 | 49.91508 | 9.07185 | 10025 ft | 275 kts | 284° |
| 2026-04-14 08:50 | 49.92047 | 9.04342 | 9933 ft | 276 kts | 284° |
| 2026-04-14 08:50 | 49.92584 | 9.01478 | 9839 ft | 276 kts | 284° |
| 2026-04-14 08:50 | 49.93120 | 8.98629 | 9718 ft | 275 kts | 284° |
| 2026-04-14 08:50 | 49.93657 | 8.95800 | 9594 ft | 271 kts | 287° |
| 2026-04-14 08:51 | 49.94555 | 8.93280 | 9475 ft | 269 kts | 314° |
| 2026-04-14 08:51 | 49.96143 | 8.91732 | 9404 ft | 275 kts | 340° |
| 2026-04-14 08:51 | 49.98047 | 8.91300 | 9287 ft | 280 kts | 0° |
| 2026-04-14 08:51 | 50.00006 | 8.91442 | 9190 ft | 283 kts | 2° |
| 2026-04-14 08:52 | 50.01884 | 8.92097 | 9039 ft | 283 kts | 28° |
| 2026-04-14 08:52 | 50.03370 | 8.94115 | 8937 ft | 283 kts | 56° |
| 2026-04-14 08:52 | 50.04215 | 8.96810 | 8832 ft | 281 kts | 70° |
| 2026-04-14 08:52 | 50.04882 | 8.99682 | 8728 ft | 284 kts | 71° |
| 2026-04-14 08:53 | 50.05546 | 9.02588 | 8603 ft | 286 kts | 71° |
| 2026-04-14 08:53 | 50.06210 | 9.05485 | 8467 ft | 282 kts | 70° |
| 2026-04-14 08:53 | 50.06656 | 9.07424 | 8404 ft | 279 kts | 70° |
| 2026-04-14 08:53 | 50.07519 | 9.11153 | 8243 ft | 275 kts | 70° |
| 2026-04-14 08:54 | 50.08169 | 9.13945 | 8136 ft | 274 kts | 70° |
| 2026-04-14 08:54 | 50.08607 | 9.15828 | 8072 ft | 273 kts | 70° |
| 2026-04-14 08:54 | 50.09251 | 9.18604 | 7970 ft | 273 kts | 70° |
| 2026-04-14 08:54 | 50.09890 | 9.21353 | 7833 ft | 273 kts | 70° |
| 2026-04-14 08:55 | 50.10533 | 9.24131 | 7741 ft | 273 kts | 70° |
| 2026-04-14 08:55 | 50.11181 | 9.26923 | 7639 ft | 274 kts | 70° |
| 2026-04-14 08:55 | 50.11827 | 9.29719 | 7506 ft | 276 kts | 70° |
| 2026-04-14 08:55 | 50.12477 | 9.32538 | 7401 ft | 277 kts | 70° |
| 2026-04-14 08:56 | 50.13127 | 9.35354 | 7291 ft | 276 kts | 70° |
| 2026-04-14 08:56 | 50.13774 | 9.38157 | 7175 ft | 274 kts | 70° |
| 2026-04-14 08:56 | 50.14417 | 9.40951 | 7072 ft | 273 kts | 70° |
| 2026-04-14 08:56 | 50.15057 | 9.43737 | 6948 ft | 273 kts | 70° |
| 2026-04-14 08:57 | 50.15694 | 9.46515 | 6839 ft | 271 kts | 70° |
| 2026-04-14 08:57 | 50.16320 | 9.49286 | 6749 ft | 270 kts | 71° |
| 2026-04-14 08:57 | 50.16932 | 9.52033 | 6703 ft | 266 kts | 71° |
| 2026-04-14 08:57 | 50.17534 | 9.54735 | 6685 ft | 262 kts | 71° |
| 2026-04-14 08:58 | 50.18130 | 9.57439 | 6707 ft | 265 kts | 71° |
| 2026-04-14 08:58 | 50.18738 | 9.60185 | 6702 ft | 269 kts | 71° |
| 2026-04-14 08:58 | 50.19350 | 9.62952 | 6702 ft | 270 kts | 71° |
| 2026-04-14 08:58 | 50.19989 | 9.65656 | 6669 ft | 258 kts | 60° |
| 2026-04-14 08:59 | 50.21191 | 9.67562 | 6610 ft | 245 kts | 22° |
| 2026-04-14 08:59 | 50.22832 | 9.68041 | 6626 ft | 240 kts | 354° |
| 2026-04-14 08:59 | 50.24452 | 9.67455 | 6659 ft | 241 kts | 334° |
| 2026-04-14 08:59 | 50.25823 | 9.65963 | 6664 ft | 243 kts | 310° |
| 2026-04-14 09:00 | 50.26648 | 9.63707 | 6613 ft | 244 kts | 286° |
| 2026-04-14 09:00 | 50.26828 | 9.61122 | 6526 ft | 238 kts | 259° |
| 2026-04-14 09:00 | 50.26406 | 9.58649 | 6457 ft | 236 kts | 254° |
| 2026-04-14 09:00 | 50.25965 | 9.56163 | 6404 ft | 239 kts | 255° |
| 2026-04-14 09:01 | 50.25526 | 9.53640 | 6328 ft | 242 kts | 255° |
| 2026-04-14 09:01 | 50.25086 | 9.51108 | 6262 ft | 240 kts | 255° |
| 2026-04-14 09:01 | 50.24648 | 9.48602 | 6153 ft | 237 kts | 255° |
| 2026-04-14 09:01 | 50.24218 | 9.46147 | 6059 ft | 233 kts | 255° |
| 2026-04-14 09:02 | 50.23793 | 9.43712 | 5996 ft | 232 kts | 255° |
| 2026-04-14 09:02 | 50.23361 | 9.41282 | 5928 ft | 232 kts | 253° |
| 2026-04-14 09:02 | 50.22831 | 9.38895 | 5869 ft | 233 kts | 250° |
| 2026-04-14 09:02 | 50.22268 | 9.36506 | 5779 ft | 235 kts | 250° |
| 2026-04-14 09:03 | 50.21706 | 9.34098 | 5643 ft | 240 kts | 251° |
| 2026-04-14 09:03 | 50.21139 | 9.31657 | 5495 ft | 236 kts | 251° |
| 2026-04-14 09:03 | 50.20586 | 9.29288 | 5390 ft | 229 kts | 251° |
| 2026-04-14 09:03 | 50.20046 | 9.26967 | 5342 ft | 228 kts | 251° |
| 2026-04-14 09:04 | 50.19507 | 9.24632 | 5254 ft | 229 kts | 251° |
| 2026-04-14 09:04 | 50.18960 | 9.22279 | 5188 ft | 232 kts | 251° |
| 2026-04-14 09:04 | 50.18412 | 9.19907 | 5106 ft | 234 kts | 251° |
| 2026-04-14 09:04 | 50.17856 | 9.17514 | 5031 ft | 235 kts | 251° |
| 2026-04-14 09:05 | 50.17295 | 9.15121 | 4943 ft | 234 kts | 251° |
| 2026-04-14 09:05 | 50.16748 | 9.12763 | 4865 ft | 228 kts | 252° |
| 2026-04-14 09:05 | 50.16214 | 9.10456 | 4764 ft | 224 kts | 252° |
| 2026-04-14 09:05 | 50.15683 | 9.08167 | 4722 ft | 226 kts | 251° |
| 2026-04-14 09:06 | 50.15168 | 9.05886 | 4667 ft | 219 kts | 253° |
| 2026-04-14 09:06 | 50.14690 | 9.03705 | 4587 ft | 212 kts | 252° |
| 2026-04-14 09:06 | 50.14199 | 9.01567 | 4528 ft | 209 kts | 252° |
| 2026-04-14 09:06 | 50.13712 | 8.99478 | 4439 ft | 199 kts | 252° |
| 2026-04-14 09:07 | 50.13248 | 8.97515 | 4343 ft | 188 kts | 252° |
| 2026-04-14 09:07 | 50.12802 | 8.95637 | 4294 ft | 183 kts | 252° |
| 2026-04-14 09:07 | 50.12361 | 8.93775 | 4253 ft | 184 kts | 252° |
| 2026-04-14 09:07 | 50.11914 | 8.91892 | 4200 ft | 186 kts | 252° |
| 2026-04-14 09:08 | 50.11464 | 8.89996 | 4141 ft | 187 kts | 252° |
| 2026-04-14 09:08 | 50.11012 | 8.88094 | 4045 ft | 186 kts | 252° |
| 2026-04-14 09:08 | 50.10567 | 8.86224 | 3953 ft | 184 kts | 252° |
| 2026-04-14 09:08 | 50.10121 | 8.84343 | 3743 ft | 184 kts | 252° |
| 2026-04-14 09:09 | 50.09680 | 8.82499 | 3521 ft | 180 kts | 253° |
| 2026-04-14 09:09 | 50.09243 | 8.80657 | 3330 ft | 184 kts | 253° |
| 2026-04-14 09:09 | 50.08803 | 8.78794 | 3045 ft | 179 kts | 253° |
| 2026-04-14 09:09 | 50.08379 | 8.77024 | 2824 ft | 170 kts | 253° |
| 2026-04-14 09:10 | 50.07988 | 8.75376 | 2604 ft | 158 kts | 253° |
| 2026-04-14 09:10 | 50.07603 | 8.73765 | 2398 ft | 160 kts | 251° |
| 2026-04-14 09:10 | 50.07216 | 8.72139 | 2191 ft | 159 kts | 248° |
| 2026-04-14 09:10 | 50.06835 | 8.70529 | 1981 ft | 159 kts | 247° |
| 2026-04-14 09:11 | 50.06442 | 8.68885 | 1762 ft | 166 kts | 251° |
| 2026-04-14 09:11 | 50.06035 | 8.67177 | 1553 ft | 170 kts | 251° |
| 2026-04-14 09:11 | 50.05626 | 8.65454 | 1307 ft | 168 kts | 251° |
| 2026-04-14 09:11 | 50.05230 | 8.63793 | 1085 ft | 164 kts | 251° |
| 2026-04-14 09:12 | 50.04836 | 8.62136 | 875 ft | 163 kts | 250° |
| 2026-04-14 09:12 | 50.04438 | 8.60485 | 668 ft | 164 kts | 251° |
| 2026-04-14 09:12 | 50.04046 | 8.58811 | 459 ft | 164 kts | 250° |
| 2026-04-14 09:12 | 50.03659 | 8.57200 | 368 ft | 148 kts | 250° |
| 2026-04-14 09:13 | 50.03354 | 8.55907 | 361 ft | 97 kts | 249° |
| 2026-04-14 09:13 | 50.03196 | 8.55261 | 357 ft | 31 kts | 252° |
| 2026-04-14 09:13 | 50.03181 | 8.54964 | 355 ft | 23 kts | 277° |
| 2026-04-14 09:13 | 50.03188 | 8.54891 | 345 ft | 0 kts | 280° |
| 2026-04-14 09:14 | 50.03188 | 8.54889 | 349 ft | 1 kts | 280° |
| 2026-04-14 09:14 | 50.03189 | 8.54877 | 355 ft | 1 kts | 280° |
| 2026-04-14 09:14 | 50.03193 | 8.54847 | 345 ft | 7 kts | 279° |
| 2026-04-14 09:15 | 50.03205 | 8.54724 | 353 ft | 13 kts | 279° |
| 2026-04-14 09:15 | 50.03244 | 8.54618 | 345 ft | 13 kts | 3° |
| 2026-04-14 09:15 | 50.03307 | 8.54705 | 352 ft | 13 kts | 65° |
| 2026-04-14 09:15 | 50.03323 | 8.54842 | 352 ft | 13 kts | 81° |
| 2026-04-14 09:16 | 50.03336 | 8.54979 | 353 ft | 13 kts | 81° |
| 2026-04-14 09:16 | 50.03371 | 8.55102 | 355 ft | 13 kts | 55° |
| 2026-04-14 09:16 | 50.03422 | 8.55216 | 356 ft | 13 kts | 57° |
| 2026-04-14 09:16 | 50.03462 | 8.55348 | 349 ft | 15 kts | 67° |
| 2026-04-14 09:17 | 50.03504 | 8.55505 | 352 ft | 17 kts | 70° |
| 2026-04-14 09:17 | 50.03542 | 8.55674 | 355 ft | 17 kts | 71° |
| 2026-04-14 09:17 | 50.03579 | 8.55844 | 353 ft | 17 kts | 71° |
| 2026-04-14 09:17 | 50.03621 | 8.56011 | 362 ft | 17 kts | 69° |
| 2026-04-14 09:18 | 50.03661 | 8.56179 | 359 ft | 17 kts | 70° |
| 2026-04-14 09:18 | 50.03701 | 8.56347 | 359 ft | 17 kts | 70° |
| 2026-04-14 09:18 | 50.03742 | 8.56516 | 363 ft | 17 kts | 69° |
| 2026-04-14 09:18 | 50.03781 | 8.56684 | 361 ft | 17 kts | 70° |
| 2026-04-14 09:19 | 50.03820 | 8.56853 | 365 ft | 17 kts | 70° |
| 2026-04-14 09:19 | 50.03861 | 8.57020 | 367 ft | 17 kts | 69° |
| 2026-04-14 09:19 | 50.03903 | 8.57187 | 368 ft | 17 kts | 70° |
| 2026-04-14 09:19 | 50.03942 | 8.57356 | 367 ft | 17 kts | 69° |
| 2026-04-14 09:20 | 50.03981 | 8.57524 | 375 ft | 17 kts | 70° |
| 2026-04-14 09:20 | 50.04021 | 8.57692 | 370 ft | 17 kts | 69° |
| 2026-04-14 09:20 | 50.04063 | 8.57860 | 371 ft | 17 kts | 69° |
| 2026-04-14 09:20 | 50.04103 | 8.58028 | 372 ft | 17 kts | 70° |
| 2026-04-14 09:21 | 50.04146 | 8.58125 | 375 ft | 8 kts | 44° |
| 2026-04-14 09:21 | 50.04197 | 8.58171 | 372 ft | 9 kts | 22° |
| 2026-04-14 09:21 | 50.04255 | 8.58200 | 371 ft | 9 kts | 6° |
| 2026-04-14 09:21 | 50.04324 | 8.58187 | 372 ft | 11 kts | 343° |
| 2026-04-14 09:22 | 50.04392 | 8.58133 | 375 ft | 11 kts | 332° |
| 2026-04-14 09:22 | 50.04461 | 8.58082 | 372 ft | 11 kts | 342° |
| 2026-04-14 09:22 | 50.04536 | 8.58044 | 370 ft | 11 kts | 342° |
| 2026-04-14 09:22 | 50.04615 | 8.58007 | 365 ft | 12 kts | 343° |
| 2026-04-14 09:23 | 50.04695 | 8.57967 | 367 ft | 12 kts | 341° |
| 2026-04-14 09:23 | 50.04774 | 8.57979 | 363 ft | 12 kts | 36° |
| 2026-04-14 09:23 | 50.04813 | 8.58093 | 369 ft | 12 kts | 70° |
| 2026-04-14 09:23 | 50.04842 | 8.58216 | 364 ft | 12 kts | 70° |
| 2026-04-14 09:24 | 50.04871 | 8.58338 | 370 ft | 12 kts | 69° |
| 2026-04-14 09:24 | 50.04901 | 8.58461 | 369 ft | 12 kts | 69° |
| 2026-04-14 09:24 | 50.04877 | 8.58538 | 371 ft | 8 kts | 161° |
| 2026-04-14 09:24 | 50.04849 | 8.58555 | 369 ft | 2 kts | 159° |
| 2026-04-14 09:25 | 50.04835 | 8.58563 | 367 ft | 2 kts | 159° |
| 2026-04-14 09:25 | 50.04832 | 8.58564 | 369 ft | 0 kts | 159° |